DADOS METEOROLÓGICOS

ONTEM
Time Temp. Dewp. Hum. Direção Velocidade Wind gust Bar. 1h Prec. 24h Prec.
00:01 13 13 100 309 0.3 1.1 1026.8 0.0000 0.0000
00:12 13.1 13.1 100 315 0.3 0.6 1026.8 0.0000 0.0000
00:22 13 13 100 304 0.3 0.8 1027 0.0000 0.0000
00:32 13 13 100 315 0.3 0.6 1027 0.0000 0.0000
00:41 12.9 12.9 100 320 0.3 0.6 1027 0.0000 0.0000
00:52 12.8 12.8 100 320 0.3 0.6 1027.1 0.0000 0.0000
01:02 12.7 12.7 100 323 0.3 0.6 1027.1 0.0000 0.0000
01:12 12.7 12.7 100 315 0.3 0.6 1027.1 0.0000 0.0000
01:22 12.7 12.7 100 30 0.3 0.6 1027.2 0.0000 0.0000
01:32 12.6 12.6 100 310 0.3 0.6 1027.2 0.0000 0.0000
01:42 12.6 12.6 100 315 0.3 0.6 1027.2 0.0000 0.0000
01:52 12.5 12.5 100 310 0.3 0.6 1027.1 0.0000 0.0000
02:00 12.5 12.5 100 305 0.3 0.6 1027.2 0.0000 0.0000
02:12 12.6 12.6 100 315 0.3 1.1 1027.3 0.0000 0.0000
02:23 12.5 12.5 100 341 0.3 0.6 1027.1 0.0000 0.0000
02:33 12.5 12.5 100 345 0.3 0.6 1027.2 0.0000 0.0000
02:43 12.5 12.5 100 315 0.3 0.6 1027 0.0000 0.0000
02:52 12.5 12.5 100 315 0.3 0.6 1027 0.0000 0.0000
03:03 12.4 12.4 100 351 0.3 0.8 1026.9 0.0000 0.0000
03:13 12.4 12.4 100 304 0.3 0.6 1026.7 0.0000 0.0000
03:23 12.2 12.2 100 326 0.3 0.8 1026.8 0.0000 0.0000
03:33 12.1 12.1 100 315 0.3 0.8 1026.8 0.0000 0.0000
03:43 11.8 11.8 100 315 0.3 0.6 1026.8 0.0000 0.0000
03:53 11.6 11.6 100 270 0.3 0.6 1026.7 0.0000 0.0000
04:03 11.4 11.4 100 334 0.3 0.8 1026.7 0.0000 0.0000
04:14 11.2 11.2 100 308 0.3 0.6 1026.6 0.0000 0.0000
04:23 11 11 100 306 0.3 0.8 1026.7 0.0000 0.0000
04:33 10.9 10.9 100 306 0.3 0.8 1026.8 0.1010 0.1000
04:43 10.7 10.7 100 270 0.3 0.6 1026.8 0.1010 0.1000
04:54 10.5 10.5 100 310 0.3 0.6 1026.5 0.1010 0.1000
05:04 10.4 10.4 100 270 0.3 0.8 1026.6 0.1010 0.1000
05:13 10.2 10.2 100 310 0.3 0.8 1026.5 0.1010 0.1000
05:24 10 10 100 270 0.3 1.1 1026.7 0.1010 0.1000
05:34 9.8 9.8 100 270 0.3 0.6 1026.6 0.0000 0.1000
05:44 9.6 9.6 100 270 0.3 0.8 1026.6 0.0000 0.1000
05:54 9.4 9.4 100 270 0.3 0.6 1026.6 0.0000 0.1000
06:04 9.3 9.3 100 270 0.3 0.8 1026.5 0.0000 0.1000
06:14 9.2 9.2 100 270 0.3 0.8 1026.7 0.0000 0.1000
06:24 9.1 9.1 100 217 0.3 0.6 1026.5 0.0000 0.1000
06:35 9.2 9.2 100 323 0.3 0.6 1026.6 0.0000 0.1000
06:44 9.3 9.3 100 225 0.3 0.8 1026.6 0.0000 0.1000
06:54 9.3 9.3 100 230 0.3 1.1 1026.6 0.0000 0.1000
07:04 9.4 9.4 100 270 0.3 0.6 1026.7 0.0000 0.1000
07:15 9.5 9.5 100 0.3 0.6 1026.6 0.0000 0.1000
07:25 9.6 9.6 100 45 0.3 0.8 1026.7 0.0000 0.1000
07:34 9.6 9.6 100 45 0.3 0.6 1026.8 0.0000 0.1000
07:45 9.8 9.8 100 198 0.3 0.8 1026.7 0.0000 0.1000
07:55 9.9 9.9 100 135 0.3 0.8 1026.9 0.0000 0.1000
08:05 10.1 10.1 100 270 0.3 0.8 1027.1 0.0000 0.1000
08:15 10.2 10.2 100 315 0.3 0.6 1027.2 0.0000 0.1000
08:25 10.3 10.3 100 315 0.3 0.6 1027.4 0.0000 0.1000
08:35 10.5 10.5 100 270 0.3 0.8 1027.5 0.0000 0.1000
08:45 10.7 10.7 100 146 0.3 0.6 1027.7 0.0000 0.1000
08:56 11 11 100 173 0.3 0.6 1027.7 0.0000 0.1000
09:05 11.2 11.2 100 135 0.3 0.8 1027.8 0.0000 0.1000
09:15 11.5 11.5 100 157 0.6 0.8 1027.9 0.0000 0.1000
09:25 11.9 11.9 100 333 0.3 0.6 1027.9 0.0000 0.1000
09:36 12 12 100 11 0.3 0.6 1028.1 0.0000 0.1000
09:45 12 12 100 90 0.3 0.6 1028 0.0000 0.1000
09:55 12 12 100 90 0.3 0.8 1028 0.0000 0.1000
10:06 12 12 100 325 0.3 0.6 1028 0.0000 0.1000
10:16 11.9 11.9 100 315 0.3 0.6 1028.1 0.0000 0.1000
10:26 12.1 12.1 100 320 0.3 0.6 1028.2 0.0000 0.1000
10:36 12.3 12.3 100 318 0.3 0.8 1028.1 0.0000 0.1000
10:46 12.5 12.5 100 125 0.3 0.8 1028.2 0.0000 0.1000
10:56 12.9 12.9 100 0.3 0.6 1028.3 0.0000 0.1000
11:06 13.3 13.3 100 52 0.3 0.6 1028.1 0.0000 0.1000
11:16 13.6 13.6 100 52 0.3 0.8 1028.2 0.0000 0.1000
11:26 13.9 13.9 100 20 0.6 1.1 1028.2 0.0000 0.1000
11:36 14.4 14.4 100 14 0.6 1.4 1028.2 0.0000 0.1000
11:46 14.7 14.4 98 22 0.8 2.5 1028.3 0.0000 0.1000
11:57 14.9 14.3 96 358 1.1 2.2 1028.1 0.0000 0.1000
12:06 15.1 14.5 96 23 1.1 1.9 1028 0.0000 0.1000
12:16 15.1 14.3 95 348 1.1 2.2 1028 0.0000 0.1000
12:27 15.2 14.6 96 2 1.1 2.2 1027.9 0.0000 0.1000
12:37 15.3 14.3 94 4 1.1 2.5 1028 0.0000 0.1000
12:46 15.4 14.3 93 1 1.1 2.5 1027.8 0.0000 0.1000
12:57 15.5 14.2 92 355 1.4 2.5 1027.8 0.0000 0.1000
13:17 15.8 14.3 91 17 1.1 2.8 1027.7 0.0000 0.1000
13:27 15.9 14.4 91 7 1.1 1.9 1027.7 0.0000 0.1000
13:37 15.9 14.3 90 19 1.4 2.8 1027.5 0.0000 0.1000
13:47 15.8 14 89 356 1.4 2.8 1027.4 0.0000 0.1000
13:57 15.8 14 89 16 0.8 1.7 1027.5 0.0000 0.1000
14:07 15.8 14.2 90 20 1.1 2.2 1027.1 0.0000 0.1000
14:18 15.8 13.6 87 13 1.4 2.5 1027.3 0.0000 0.1000
14:27 15.8 13.6 87 6 1.7 2.8 1027.2 0.0000 0.1000
14:37 15.8 13.5 86 14 1.4 2.8 1027 0.0000 0.1000
14:48 15.8 13.5 86 15 1.4 2.5 1026.8 0.0000 0.1000
14:58 15.9 13.4 85 20 1.9 3.1 1026.8 0.0000 0.1000
15:08 15.9 13.4 85 16 1.4 3.1 1026.7 0.0000 0.1000
15:18 15.9 13 83 23 1.7 3.1 1026.7 0.0000 0.1000
15:27 15.7 13 84 24 1.7 3.1 1026.5 0.0000 0.1000
15:38 15.6 12.9 84 27 1.4 2.8 1026.7 0.0000 0.1000
15:48 15.6 13.3 86 7 1.1 1.9 1026.6 0.0000 0.1000
15:58 15.5 12.8 84 19 1.7 2.8 1026.5 0.0000 0.1000
16:08 15.4 12.9 85 21 1.4 2.5 1026.6 0.0000 0.1000
16:18 15.4 13.1 86 15 1.1 2.5 1026.3 0.0000 0.1000
16:28 15.3 12.8 85 12 1.7 2.8 1026.4 0.0000 0.1000
16:39 15.1 12.8 86 358 1.4 2.2 1026.3 0.0000 0.1000
16:48 15 12.7 86 0 0.8 1.7 1026.1 0.0000 0.1000
16:58 14.9 12.6 86 3 1.4 2.2 1026.1 0.0000 0.1000
17:09 14.6 12.3 86 0 1.4 2.2 1026 0.0000 0.1000
17:19 14.4 12.1 86 0 1.1 2.2 1025.8 0.0000 0.1000
17:28 14.2 11.9 86 349 1.1 1.9 1025.7 0.0000 0.1000
17:39 14 11.9 87 348 0.6 1.1 1025.7 0.0000 0.1000
17:49 13.7 11.8 88 333 0.6 1.1 1025.6 0.0000 0.1000
17:59 13.4 11.5 88 345 0.3 0.8 1025.6 0.0000 0.1000
18:09 13 11.4 90 333 0.3 0.6 1025.7 0.0000 0.1000
18:19 12.5 11.2 92 324 0.3 0.6 1025.6 0.0000 0.1000
18:29 12.2 11.1 93 315 0.3 0.6 1025.8 0.0000 0.1000
18:39 11.8 10.7 93 302 0.3 0.6 1025.9 0.0000 0.1000
18:49 11.4 10.5 94 306 0.3 0.8 1025.9 0.0000 0.1000
18:59 11.1 10.3 95 320 0.3 0.8 1025.8 0.0000 0.1000
19:09 10.8 10.2 96 270 0.3 1.1 1025.9 0.0000 0.1000
19:19 10.6 10 96 270 0.3 0.8 1026 0.0000 0.1000
19:30 10.4 9.9 97 270 0.3 1.1 1026 0.0000 0.1000
19:40 10.2 9.7 97 270 0.6 1.1 1026.1 0.0000 0.1000
19:49 10.1 9.8 98 270 0.6 1.1 1026.1 0.0000 0.1000
20:00 9.9 9.6 98 270 0.6 1.7 1026.1 0.0000 0.1000
20:10 9.8 9.5 98 270 0.6 1.1 1026 0.0000 0.1000
20:20 9.6 9.3 98 270 0.6 1.1 1026 0.0000 0.1000
20:29 9.5 9.2 98 270 0.6 1.1 1025.9 0.0000 0.1000
20:40 9.3 9 98 270 0.3 0.8 1026.1 0.0000 0.1000
20:50 9.1 8.8 98 270 0.6 1.1 1026 0.0000 0.1000
21:00 9 8.7 98 270 0.6 1.1 1025.9 0.0000 0.1000
21:10 8.8 8.5 98 270 0.6 1.4 1026 0.0000 0.1000
21:20 8.7 8.4 98 289 0.6 1.1 1026 0.0000 0.1000
21:30 8.5 8.4 99 270 0.6 1.7 1026 0.0000 0.1000
21:40 8.3 8.2 99 270 0.3 1.1 1026 0.0000 0.1000
21:51 8.2 8.1 99 270 0.3 0.8 1026 0.0000 0.1000
22:01 8 7.9 99 322 0.3 0.8 1026 0.0000 0.1000
22:10 8 8 100 270 0.6 1.4 1026.3 0.0000 0.1000
22:20 8 8 100 270 0.8 1.1 1026.1 0.0000 0.1000
22:31 8 8 100 270 0.6 1.4 1026.1 0.0000 0.1000
22:41 8 8 100 270 0.6 1.1 1026.3 0.0000 0.1000
22:50 7.9 7.9 100 270 0.3 1.4 1026 0.0000 0.1000
23:01 7.8 7.8 100 348 0.3 0.6 1026.1 0.0000 0.1000
23:11 7.6 7.6 100 270 0.3 0.8 1025.9 0.0000 0.1000
23:21 7.6 7.6 100 270 0.3 0.8 1025.9 0.0000 0.1000
23:31 7.6 7.6 100 270 0.6 1.4 1025.9 0.0000 0.1000
23:41 7.5 7.5 100 270 0.3 1.1 1025.8 0.0000 0.1000
23:51 7.4 7.4 100 315 0.3 0.8 1025.8 0.0000 0.1000

ESTATÍSTICAS DO DIA

2021-10-24
TEMPERATURA
MÉDIA
11.9
MÁXIMO
15.9
13:27
MÍNIMO
7.4
23:51
PRESSÃO
MÉDIA
1026.8
MÁXIMO
1028.3
10:56
MÍNIMO
1025.6
17:49
P. ORVALHO
MÉDIA
11.3
MÁXIMO
14.6
12:27
MÍNIMO
7.4
23:51
HUMIDADE
MÉDIA
96
MÁXIMO
100
00:01
MÍNIMO
83
15:18
VELOCIDADE DO VENTO
MÉDIA
0.6
MÁXIMO
1.9
14:58
WIND GUST
MÉDIA
1.2
MÁXIMO
3.1
14:58
DIREÇÃO DO VENTO
PREDOMINANTE
NW
29.6%
N
27.5
NE
6.3
E
1.4
SE
3.5
S
1.4
SW
2.1
W
26.8
NW
29.6
PRECIPITAÇÃO
CHUVA HORA
0.1
CHUVA DIA
0.1
TEMPERATURA (°C)
MÍNIMO
7.4
MÁXIMO
15.9
MÉDIA
11.9
PRESSÃO (hpa)
MÍNIMO
1025.6
MÁXIMO
1028.3
MÉDIA
1026.8
DEVICE